sensor_id;sensor_type;location;lat;lon;timestamp;P1;durP1;ratioP1;P2;durP2;ratioP2
37051;SDS011;22964;52.272;13.356;2023-01-26T00:01:32;23.30;;;9.25;;
37051;SDS011;22964;52.272;13.356;2023-01-26T00:03:58;23.42;;;9.65;;
37051;SDS011;22964;52.272;13.356;2023-01-26T00:09:25;23.48;;;9.27;;
37051;SDS011;22964;52.272;13.356;2023-01-26T00:11:55;21.02;;;8.20;;
37051;SDS011;22964;52.272;13.356;2023-01-26T00:14:21;20.95;;;9.68;;
37051;SDS011;22964;52.272;13.356;2023-01-26T00:16:47;21.70;;;8.90;;
37051;SDS011;22964;52.272;13.356;2023-01-26T00:19:15;22.20;;;9.07;;
37051;SDS011;22964;52.272;13.356;2023-01-26T00:22:19;21.38;;;9.07;;
37051;SDS011;22964;52.272;13.356;2023-01-26T00:24:44;23.17;;;9.65;;
37051;SDS011;22964;52.272;13.356;2023-01-26T00:27:10;20.55;;;9.00;;
37051;SDS011;22964;52.272;13.356;2023-01-26T00:29:35;26.23;;;10.50;;
37051;SDS011;22964;52.272;13.356;2023-01-26T00:32:03;29.80;;;11.52;;
37051;SDS011;22964;52.272;13.356;2023-01-26T00:35:00;28.08;;;11.10;;
37051;SDS011;22964;52.272;13.356;2023-01-26T00:37:26;27.38;;;11.32;;
37051;SDS011;22964;52.272;13.356;2023-01-26T00:39:55;26.27;;;10.80;;
37051;SDS011;22964;52.272;13.356;2023-01-26T00:42:22;25.83;;;11.63;;
37051;SDS011;22964;52.272;13.356;2023-01-26T00:44:48;27.85;;;11.07;;
37051;SDS011;22964;52.272;13.356;2023-01-26T00:47:56;26.30;;;11.10;;
37051;SDS011;22964;52.272;13.356;2023-01-26T00:50:24;22.15;;;9.60;;
37051;SDS011;22964;52.272;13.356;2023-01-26T00:53:28;23.65;;;11.07;;
37051;SDS011;22964;52.272;13.356;2023-01-26T00:55:54;26.52;;;10.82;;
37051;SDS011;22964;52.272;13.356;2023-01-26T00:58:22;22.65;;;11.02;;
37051;SDS011;22964;52.272;13.356;2023-01-26T01:00:47;24.83;;;10.75;;
37051;SDS011;22964;52.272;13.356;2023-01-26T01:03:48;24.23;;;12.05;;
37051;SDS011;22964;52.272;13.356;2023-01-26T01:06:16;23.98;;;11.23;;
37051;SDS011;22964;52.272;13.356;2023-01-26T01:08:42;28.17;;;11.75;;
37051;SDS011;22964;52.272;13.356;2023-01-26T01:11:10;24.90;;;10.85;;
37051;SDS011;22964;52.272;13.356;2023-01-26T01:13:36;23.10;;;10.02;;
37051;SDS011;22964;52.272;13.356;2023-01-26T01:16:42;23.40;;;10.20;;
37051;SDS011;22964;52.272;13.356;2023-01-26T01:19:14;22.85;;;10.55;;
37051;SDS011;22964;52.272;13.356;2023-01-26T01:22:10;22.55;;;9.88;;
37051;SDS011;22964;52.272;13.356;2023-01-26T01:24:36;20.98;;;10.73;;
37051;SDS011;22964;52.272;13.356;2023-01-26T01:27:02;22.52;;;10.20;;
37051;SDS011;22964;52.272;13.356;2023-01-26T01:29:31;20.83;;;9.63;;
37051;SDS011;22964;52.272;13.356;2023-01-26T01:31:56;20.48;;;9.20;;
37051;SDS011;22964;52.272;13.356;2023-01-26T01:34:22;19.38;;;9.13;;
37051;SDS011;22964;52.272;13.356;2023-01-26T01:36:48;20.52;;;9.52;;
37051;SDS011;22964;52.272;13.356;2023-01-26T01:39:26;21.75;;;10.30;;
37051;SDS011;22964;52.272;13.356;2023-01-26T01:42:14;21.65;;;9.32;;
37051;SDS011;22964;52.272;13.356;2023-01-26T01:44:45;23.63;;;9.93;;
37051;SDS011;22964;52.272;13.356;2023-01-26T01:47:43;21.25;;;9.35;;
37051;SDS011;22964;52.272;13.356;2023-01-26T01:50:21;24.23;;;10.13;;
37051;SDS011;22964;52.272;13.356;2023-01-26T01:52:56;21.35;;;9.48;;
37051;SDS011;22964;52.272;13.356;2023-01-26T01:55:48;21.73;;;9.63;;
37051;SDS011;22964;52.272;13.356;2023-01-26T01:58:17;22.95;;;9.95;;
37051;SDS011;22964;52.272;13.356;2023-01-26T02:00:43;19.75;;;8.75;;
37051;SDS011;22964;52.272;13.356;2023-01-26T02:03:11;22.27;;;9.20;;
37051;SDS011;22964;52.272;13.356;2023-01-26T02:08:39;21.33;;;9.70;;
37051;SDS011;22964;52.272;13.356;2023-01-26T02:11:32;21.05;;;9.90;;
37051;SDS011;22964;52.272;13.356;2023-01-26T02:14:15;22.05;;;10.32;;
37051;SDS011;22964;52.272;13.356;2023-01-26T02:16:41;23.77;;;10.60;;
37051;SDS011;22964;52.272;13.356;2023-01-26T02:19:09;21.80;;;9.65;;
37051;SDS011;22964;52.272;13.356;2023-01-26T02:21:54;23.08;;;10.15;;
37051;SDS011;22964;52.272;13.356;2023-01-26T02:24:42;25.05;;;10.23;;
37051;SDS011;22964;52.272;13.356;2023-01-26T02:27:09;21.48;;;10.55;;
37051;SDS011;22964;52.272;13.356;2023-01-26T02:29:34;24.75;;;10.10;;
37051;SDS011;22964;52.272;13.356;2023-01-26T02:32:01;23.25;;;10.63;;
37051;SDS011;22964;52.272;13.356;2023-01-26T02:34:31;25.13;;;11.38;;
37051;SDS011;22964;52.272;13.356;2023-01-26T02:37:26;22.58;;;10.15;;
37051;SDS011;22964;52.272;13.356;2023-01-26T02:39:54;22.83;;;9.52;;
37051;SDS011;22964;52.272;13.356;2023-01-26T02:45:27;22.38;;;9.65;;
37051;SDS011;22964;52.272;13.356;2023-01-26T02:47:53;20.45;;;9.32;;
37051;SDS011;22964;52.272;13.356;2023-01-26T02:50:19;21.38;;;9.20;;
37051;SDS011;22964;52.272;13.356;2023-01-26T02:52:47;20.15;;;10.13;;
37051;SDS011;22964;52.272;13.356;2023-01-26T02:58:13;20.40;;;9.23;;
37051;SDS011;22964;52.272;13.356;2023-01-26T03:00:38;17.13;;;7.53;;
37051;SDS011;22964;52.272;13.356;2023-01-26T03:03:17;18.83;;;9.10;;
37051;SDS011;22964;52.272;13.356;2023-01-26T03:06:11;19.63;;;9.07;;
37051;SDS011;22964;52.272;13.356;2023-01-26T03:08:44;20.88;;;9.50;;
37051;SDS011;22964;52.272;13.356;2023-01-26T03:11:10;17.63;;;8.40;;
37051;SDS011;22964;52.272;13.356;2023-01-26T03:13:36;18.13;;;8.18;;
37051;SDS011;22964;52.272;13.356;2023-01-26T03:16:05;19.50;;;8.52;;
37051;SDS011;22964;52.272;13.356;2023-01-26T03:19:02;16.33;;;7.60;;
37051;SDS011;22964;52.272;13.356;2023-01-26T03:21:30;21.17;;;9.32;;
37051;SDS011;22964;52.272;13.356;2023-01-26T03:24:25;18.00;;;8.43;;
37051;SDS011;22964;52.272;13.356;2023-01-26T03:27:09;17.48;;;8.18;;
37051;SDS011;22964;52.272;13.356;2023-01-26T03:30:07;16.55;;;7.85;;
37051;SDS011;22964;52.272;13.356;2023-01-26T03:32:36;19.42;;;8.45;;
37051;SDS011;22964;52.272;13.356;2023-01-26T03:35:07;15.95;;;7.50;;
37051;SDS011;22964;52.272;13.356;2023-01-26T03:40:48;18.02;;;8.00;;
37051;SDS011;22964;52.272;13.356;2023-01-26T03:43:45;17.67;;;8.43;;
37051;SDS011;22964;52.272;13.356;2023-01-26T03:46:38;16.38;;;7.65;;
37051;SDS011;22964;52.272;13.356;2023-01-26T03:49:33;16.67;;;8.30;;
37051;SDS011;22964;52.272;13.356;2023-01-26T03:52:20;18.20;;;8.30;;
37051;SDS011;22964;52.272;13.356;2023-01-26T03:55:08;17.67;;;8.20;;
37051;SDS011;22964;52.272;13.356;2023-01-26T03:58:06;18.25;;;8.55;;
37051;SDS011;22964;52.272;13.356;2023-01-26T04:00:39;16.15;;;7.30;;
37051;SDS011;22964;52.272;13.356;2023-01-26T04:03:05;17.35;;;7.53;;
37051;SDS011;22964;52.272;13.356;2023-01-26T04:05:53;16.23;;;7.93;;
37051;SDS011;22964;52.272;13.356;2023-01-26T04:08:58;17.50;;;7.95;;
37051;SDS011;22964;52.272;13.356;2023-01-26T04:11:37;17.67;;;7.55;;
37051;SDS011;22964;52.272;13.356;2023-01-26T04:14:15;17.33;;;8.50;;
37051;SDS011;22964;52.272;13.356;2023-01-26T04:17:01;18.38;;;9.38;;
37051;SDS011;22964;52.272;13.356;2023-01-26T04:19:51;23.83;;;10.80;;
37051;SDS011;22964;52.272;13.356;2023-01-26T04:22:42;24.13;;;11.73;;
37051;SDS011;22964;52.272;13.356;2023-01-26T04:25:27;28.17;;;13.13;;
37051;SDS011;22964;52.272;13.356;2023-01-26T04:27:58;25.95;;;12.82;;
37051;SDS011;22964;52.272;13.356;2023-01-26T04:30:28;22.75;;;10.38;;
37051;SDS011;22964;52.272;13.356;2023-01-26T04:33:22;18.60;;;9.25;;
37051;SDS011;22964;52.272;13.356;2023-01-26T04:35:50;25.50;;;12.88;;
37051;SDS011;22964;52.272;13.356;2023-01-26T04:38:16;20.50;;;9.65;;
37051;SDS011;22964;52.272;13.356;2023-01-26T04:40:54;17.17;;;8.10;;
37051;SDS011;22964;52.272;13.356;2023-01-26T04:43:26;16.42;;;6.75;;
37051;SDS011;22964;52.272;13.356;2023-01-26T04:46:22;16.55;;;8.15;;
37051;SDS011;22964;52.272;13.356;2023-01-26T04:48:48;27.08;;;13.10;;
37051;SDS011;22964;52.272;13.356;2023-01-26T04:51:15;17.20;;;8.02;;
37051;SDS011;22964;52.272;13.356;2023-01-26T04:54:23;16.75;;;7.60;;
37051;SDS011;22964;52.272;13.356;2023-01-26T04:56:48;19.15;;;7.28;;
37051;SDS011;22964;52.272;13.356;2023-01-26T04:59:26;18.02;;;7.40;;
37051;SDS011;22964;52.272;13.356;2023-01-26T05:04:46;17.88;;;7.70;;
37051;SDS011;22964;52.272;13.356;2023-01-26T05:07:13;16.80;;;7.03;;
37051;SDS011;22964;52.272;13.356;2023-01-26T05:10:05;12.52;;;6.50;;
37051;SDS011;22964;52.272;13.356;2023-01-26T05:13:11;14.68;;;6.55;;
37051;SDS011;22964;52.272;13.356;2023-01-26T05:16:02;15.10;;;6.63;;
37051;SDS011;22964;52.272;13.356;2023-01-26T05:18:59;16.45;;;6.85;;
37051;SDS011;22964;52.272;13.356;2023-01-26T05:21:36;15.27;;;6.88;;
37051;SDS011;22964;52.272;13.356;2023-01-26T05:24:04;17.63;;;7.43;;
37051;SDS011;22964;52.272;13.356;2023-01-26T05:26:58;17.52;;;7.60;;
37051;SDS011;22964;52.272;13.356;2023-01-26T05:29:46;15.68;;;6.45;;
37051;SDS011;22964;52.272;13.356;2023-01-26T05:32:37;18.77;;;7.05;;
37051;SDS011;22964;52.272;13.356;2023-01-26T05:35:09;17.13;;;7.07;;
37051;SDS011;22964;52.272;13.356;2023-01-26T05:37:35;16.48;;;7.00;;
37051;SDS011;22964;52.272;13.356;2023-01-26T05:43:02;16.33;;;6.80;;
37051;SDS011;22964;52.272;13.356;2023-01-26T05:45:51;14.13;;;6.68;;
37051;SDS011;22964;52.272;13.356;2023-01-26T05:48:38;15.63;;;7.15;;
37051;SDS011;22964;52.272;13.356;2023-01-26T05:51:07;15.48;;;6.78;;
37051;SDS011;22964;52.272;13.356;2023-01-26T05:53:34;17.20;;;7.15;;
37051;SDS011;22964;52.272;13.356;2023-01-26T05:56:00;16.50;;;7.20;;
37051;SDS011;22964;52.272;13.356;2023-01-26T05:58:30;18.52;;;7.78;;
37051;SDS011;22964;52.272;13.356;2023-01-26T06:01:27;18.63;;;7.35;;
37051;SDS011;22964;52.272;13.356;2023-01-26T06:03:58;14.07;;;6.32;;
37051;SDS011;22964;52.272;13.356;2023-01-26T06:06:27;16.17;;;7.15;;
37051;SDS011;22964;52.272;13.356;2023-01-26T06:09:34;18.80;;;8.13;;
37051;SDS011;22964;52.272;13.356;2023-01-26T06:12:30;17.10;;;7.30;;
37051;SDS011;22964;52.272;13.356;2023-01-26T06:15:20;15.57;;;7.05;;
37051;SDS011;22964;52.272;13.356;2023-01-26T06:18:13;16.38;;;6.82;;
37051;SDS011;22964;52.272;13.356;2023-01-26T06:20:46;18.58;;;7.63;;
37051;SDS011;22964;52.272;13.356;2023-01-26T06:23:13;17.92;;;7.55;;
37051;SDS011;22964;52.272;13.356;2023-01-26T06:25:39;17.27;;;7.30;;
37051;SDS011;22964;52.272;13.356;2023-01-26T06:28:16;17.48;;;7.57;;
37051;SDS011;22964;52.272;13.356;2023-01-26T06:31:03;19.65;;;7.80;;
37051;SDS011;22964;52.272;13.356;2023-01-26T06:33:37;17.38;;;7.55;;
37051;SDS011;22964;52.272;13.356;2023-01-26T06:36:23;18.45;;;7.65;;
37051;SDS011;22964;52.272;13.356;2023-01-26T06:39:07;18.70;;;7.40;;
37051;SDS011;22964;52.272;13.356;2023-01-26T06:41:35;17.25;;;8.30;;
37051;SDS011;22964;52.272;13.356;2023-01-26T06:44:00;16.35;;;7.43;;
37051;SDS011;22964;52.272;13.356;2023-01-26T06:46:27;16.27;;;7.32;;
37051;SDS011;22964;52.272;13.356;2023-01-26T06:49:00;14.55;;;6.80;;
37051;SDS011;22964;52.272;13.356;2023-01-26T06:51:51;13.73;;;6.35;;
37051;SDS011;22964;52.272;13.356;2023-01-26T06:54:29;15.00;;;6.90;;
37051;SDS011;22964;52.272;13.356;2023-01-26T06:57:27;14.27;;;6.22;;
37051;SDS011;22964;52.272;13.356;2023-01-26T07:00:03;13.27;;;6.43;;
37051;SDS011;22964;52.272;13.356;2023-01-26T07:03:01;14.98;;;7.15;;
37051;SDS011;22964;52.272;13.356;2023-01-26T07:05:29;13.80;;;7.25;;
37051;SDS011;22964;52.272;13.356;2023-01-26T07:07:55;15.90;;;8.40;;
37051;SDS011;22964;52.272;13.356;2023-01-26T07:10:21;17.52;;;9.98;;
37051;SDS011;22964;52.272;13.356;2023-01-26T07:12:47;16.17;;;9.35;;
37051;SDS011;22964;52.272;13.356;2023-01-26T07:15:12;14.93;;;7.65;;
37051;SDS011;22964;52.272;13.356;2023-01-26T07:17:38;14.50;;;7.25;;
37051;SDS011;22964;52.272;13.356;2023-01-26T07:20:32;17.45;;;9.32;;
37051;SDS011;22964;52.272;13.356;2023-01-26T07:23:03;17.65;;;7.63;;
37051;SDS011;22964;52.272;13.356;2023-01-26T07:25:28;15.55;;;7.38;;
37051;SDS011;22964;52.272;13.356;2023-01-26T07:27:55;13.52;;;6.53;;
37051;SDS011;22964;52.272;13.356;2023-01-26T07:30:21;14.70;;;6.55;;
37051;SDS011;22964;52.272;13.356;2023-01-26T07:32:47;14.05;;;6.43;;
37051;SDS011;22964;52.272;13.356;2023-01-26T07:35:13;14.48;;;6.05;;
37051;SDS011;22964;52.272;13.356;2023-01-26T07:37:41;13.93;;;6.60;;
37051;SDS011;22964;52.272;13.356;2023-01-26T07:40:35;14.32;;;7.18;;
37051;SDS011;22964;52.272;13.356;2023-01-26T07:43:01;13.30;;;6.22;;
37051;SDS011;22964;52.272;13.356;2023-01-26T07:45:56;14.10;;;5.60;;
37051;SDS011;22964;52.272;13.356;2023-01-26T07:48:34;13.23;;;5.38;;
37051;SDS011;22964;52.272;13.356;2023-01-26T07:51:03;13.27;;;7.15;;
37051;SDS011;22964;52.272;13.356;2023-01-26T07:53:32;69.45;;;27.48;;
37051;SDS011;22964;52.272;13.356;2023-01-26T07:58:52;43.70;;;17.23;;
37051;SDS011;22964;52.272;13.356;2023-01-26T08:01:21;23.77;;;10.40;;
37051;SDS011;22964;52.272;13.356;2023-01-26T08:03:50;32.40;;;15.48;;
37051;SDS011;22964;52.272;13.356;2023-01-26T08:06:18;35.30;;;18.95;;
37051;SDS011;22964;52.272;13.356;2023-01-26T08:08:45;26.75;;;15.10;;
37051;SDS011;22964;52.272;13.356;2023-01-26T08:11:22;23.73;;;13.73;;
37051;SDS011;22964;52.272;13.356;2023-01-26T08:14:00;19.55;;;9.68;;
37051;SDS011;22964;52.272;13.356;2023-01-26T08:16:33;14.50;;;8.65;;
37051;SDS011;22964;52.272;13.356;2023-01-26T08:19:02;13.23;;;6.97;;
37051;SDS011;22964;52.272;13.356;2023-01-26T08:21:28;15.13;;;7.75;;
37051;SDS011;22964;52.272;13.356;2023-01-26T08:23:56;13.85;;;7.93;;
37051;SDS011;22964;52.272;13.356;2023-01-26T08:26:26;11.73;;;5.53;;
37051;SDS011;22964;52.272;13.356;2023-01-26T08:29:05;11.57;;;5.57;;
37051;SDS011;22964;52.272;13.356;2023-01-26T08:31:51;9.20;;;5.13;;
37051;SDS011;22964;52.272;13.356;2023-01-26T08:34:17;10.05;;;5.88;;
37051;SDS011;22964;52.272;13.356;2023-01-26T08:36:50;13.30;;;7.25;;
37051;SDS011;22964;52.272;13.356;2023-01-26T08:39:16;16.63;;;8.68;;
37051;SDS011;22964;52.272;13.356;2023-01-26T08:41:42;31.52;;;16.50;;
37051;SDS011;22964;52.272;13.356;2023-01-26T08:44:08;14.60;;;8.30;;
37051;SDS011;22964;52.272;13.356;2023-01-26T08:46:34;14.70;;;7.05;;
37051;SDS011;22964;52.272;13.356;2023-01-26T08:49:00;13.07;;;6.47;;
37051;SDS011;22964;52.272;13.356;2023-01-26T08:51:26;16.33;;;7.30;;
37051;SDS011;22964;52.272;13.356;2023-01-26T08:53:51;69.07;;;19.75;;
37051;SDS011;22964;52.272;13.356;2023-01-26T08:56:25;25.25;;;10.45;;
37051;SDS011;22964;52.272;13.356;2023-01-26T08:59:01;19.02;;;9.00;;
37051;SDS011;22964;52.272;13.356;2023-01-26T09:01:45;23.02;;;11.90;;
37051;SDS011;22964;52.272;13.356;2023-01-26T09:04:12;16.45;;;7.97;;
37051;SDS011;22964;52.272;13.356;2023-01-26T09:06:38;16.65;;;8.32;;
37051;SDS011;22964;52.272;13.356;2023-01-26T09:09:04;18.67;;;10.00;;
37051;SDS011;22964;52.272;13.356;2023-01-26T09:11:53;17.25;;;8.38;;
37051;SDS011;22964;52.272;13.356;2023-01-26T09:14:33;18.80;;;7.82;;
37051;SDS011;22964;52.272;13.356;2023-01-26T09:16:58;14.98;;;7.53;;
37051;SDS011;22964;52.272;13.356;2023-01-26T09:19:24;15.25;;;8.00;;
37051;SDS011;22964;52.272;13.356;2023-01-26T09:21:53;16.88;;;8.52;;
37051;SDS011;22964;52.272;13.356;2023-01-26T09:24:48;15.18;;;7.32;;
37051;SDS011;22964;52.272;13.356;2023-01-26T09:27:14;14.30;;;7.85;;
37051;SDS011;22964;52.272;13.356;2023-01-26T09:29:42;15.30;;;8.77;;
37051;SDS011;22964;52.272;13.356;2023-01-26T09:32:08;16.88;;;7.13;;
37051;SDS011;22964;52.272;13.356;2023-01-26T09:34:33;16.05;;;7.70;;
37051;SDS011;22964;52.272;13.356;2023-01-26T09:36:59;16.60;;;8.05;;
37051;SDS011;22964;52.272;13.356;2023-01-26T09:39:25;22.33;;;11.00;;
37051;SDS011;22964;52.272;13.356;2023-01-26T09:41:57;17.55;;;10.27;;
37051;SDS011;22964;52.272;13.356;2023-01-26T09:45:23;22.52;;;12.60;;
37051;SDS011;22964;52.272;13.356;2023-01-26T09:50:26;28.42;;;14.82;;
37051;SDS011;22964;52.272;13.356;2023-01-26T09:55:43;24.05;;;13.20;;
37051;SDS011;22964;52.272;13.356;2023-01-26T09:58:14;32.35;;;18.40;;
37051;SDS011;22964;52.272;13.356;2023-01-26T10:00:59;66.55;;;33.42;;
37051;SDS011;22964;52.272;13.356;2023-01-26T10:03:50;58.17;;;32.88;;
37051;SDS011;22964;52.272;13.356;2023-01-26T10:06:26;40.53;;;23.13;;
37051;SDS011;22964;52.272;13.356;2023-01-26T10:09:10;23.15;;;12.05;;
37051;SDS011;22964;52.272;13.356;2023-01-26T10:11:44;17.52;;;8.88;;
37051;SDS011;22964;52.272;13.356;2023-01-26T10:14:14;19.52;;;9.70;;
37051;SDS011;22964;52.272;13.356;2023-01-26T10:16:45;22.83;;;12.40;;
37051;SDS011;22964;52.272;13.356;2023-01-26T10:19:35;23.73;;;12.80;;
37051;SDS011;22964;52.272;13.356;2023-01-26T10:22:08;25.75;;;13.98;;
37051;SDS011;22964;52.272;13.356;2023-01-26T10:24:42;28.15;;;14.73;;
37051;SDS011;22964;52.272;13.356;2023-01-26T10:27:13;26.77;;;15.52;;
37051;SDS011;22964;52.272;13.356;2023-01-26T10:29:38;30.48;;;16.88;;
37051;SDS011;22964;52.272;13.356;2023-01-26T10:32:04;30.45;;;16.80;;
37051;SDS011;22964;52.272;13.356;2023-01-26T10:34:30;20.80;;;11.48;;
37051;SDS011;22964;52.272;13.356;2023-01-26T10:37:01;17.92;;;10.23;;
37051;SDS011;22964;52.272;13.356;2023-01-26T10:39:55;16.80;;;9.18;;
37051;SDS011;22964;52.272;13.356;2023-01-26T10:42:29;24.30;;;12.68;;
37051;SDS011;22964;52.272;13.356;2023-01-26T10:44:57;18.73;;;9.90;;
37051;SDS011;22964;52.272;13.356;2023-01-26T10:47:26;14.40;;;7.97;;
37051;SDS011;22964;52.272;13.356;2023-01-26T10:49:55;12.60;;;7.25;;
37051;SDS011;22964;52.272;13.356;2023-01-26T10:53:00;16.33;;;9.43;;
37051;SDS011;22964;52.272;13.356;2023-01-26T10:55:29;11.48;;;6.95;;
37051;SDS011;22964;52.272;13.356;2023-01-26T10:57:56;11.32;;;7.05;;
37051;SDS011;22964;52.272;13.356;2023-01-26T11:03:15;11.35;;;6.60;;
37051;SDS011;22964;52.272;13.356;2023-01-26T11:05:43;12.32;;;6.68;;
37051;SDS011;22964;52.272;13.356;2023-01-26T11:08:29;11.88;;;7.10;;
37051;SDS011;22964;52.272;13.356;2023-01-26T11:11:00;13.70;;;7.22;;
37051;SDS011;22964;52.272;13.356;2023-01-26T11:13:30;11.95;;;6.55;;
37051;SDS011;22964;52.272;13.356;2023-01-26T11:16:10;12.82;;;6.80;;
37051;SDS011;22964;52.272;13.356;2023-01-26T11:21:51;11.60;;;6.30;;
37051;SDS011;22964;52.272;13.356;2023-01-26T11:25:02;12.23;;;6.75;;
37051;SDS011;22964;52.272;13.356;2023-01-26T11:27:35;12.27;;;7.10;;
37051;SDS011;22964;52.272;13.356;2023-01-26T11:35:15;10.23;;;6.07;;
37051;SDS011;22964;52.272;13.356;2023-01-26T11:52:18;11.30;;;6.40;;
37051;SDS011;22964;52.272;13.356;2023-01-26T11:57:26;14.20;;;7.63;;
37051;SDS011;22964;52.272;13.356;2023-01-26T12:02:41;15.05;;;7.65;;
37051;SDS011;22964;52.272;13.356;2023-01-26T12:05:16;11.23;;;6.70;;
37051;SDS011;22964;52.272;13.356;2023-01-26T12:08:10;12.55;;;6.88;;
37051;SDS011;22964;52.272;13.356;2023-01-26T12:13:49;13.18;;;7.40;;
37051;SDS011;22964;52.272;13.356;2023-01-26T12:22:10;13.75;;;6.90;;
37051;SDS011;22964;52.272;13.356;2023-01-26T12:24:39;13.80;;;7.55;;
37051;SDS011;22964;52.272;13.356;2023-01-26T12:27:32;13.80;;;6.80;;
37051;SDS011;22964;52.272;13.356;2023-01-26T12:30:22;10.90;;;6.32;;
37051;SDS011;22964;52.272;13.356;2023-01-26T12:32:52;10.90;;;5.93;;
37051;SDS011;22964;52.272;13.356;2023-01-26T12:35:21;11.90;;;6.10;;
37051;SDS011;22964;52.272;13.356;2023-01-26T12:38:07;10.45;;;5.63;;
37051;SDS011;22964;52.272;13.356;2023-01-26T12:40:42;8.85;;;5.10;;
37051;SDS011;22964;52.272;13.356;2023-01-26T12:46:00;10.07;;;5.32;;
37051;SDS011;22964;52.272;13.356;2023-01-26T12:51:32;8.88;;;5.07;;
37051;SDS011;22964;52.272;13.356;2023-01-26T12:57:17;7.32;;;4.60;;
37051;SDS011;22964;52.272;13.356;2023-01-26T12:59:47;7.55;;;4.47;;
37051;SDS011;22964;52.272;13.356;2023-01-26T13:04:39;7.88;;;4.53;;
37051;SDS011;22964;52.272;13.356;2023-01-26T13:10:17;8.35;;;4.88;;
37051;SDS011;22964;52.272;13.356;2023-01-26T13:15:24;8.57;;;4.88;;
37051;SDS011;22964;52.272;13.356;2023-01-26T13:17:53;7.90;;;4.78;;
37051;SDS011;22964;52.272;13.356;2023-01-26T13:20:25;8.43;;;4.93;;
37051;SDS011;22964;52.272;13.356;2023-01-26T13:23:07;8.40;;;5.13;;
37051;SDS011;22964;52.272;13.356;2023-01-26T13:29:20;9.57;;;6.10;;
37051;SDS011;22964;52.272;13.356;2023-01-26T13:31:54;10.00;;;6.10;;
37051;SDS011;22964;52.272;13.356;2023-01-26T13:34:25;10.52;;;6.60;;
37051;SDS011;22964;52.272;13.356;2023-01-26T13:40:04;11.15;;;6.30;;
37051;SDS011;22964;52.272;13.356;2023-01-26T13:43:00;10.80;;;6.30;;
37051;SDS011;22964;52.272;13.356;2023-01-26T13:48:47;8.80;;;5.68;;
37051;SDS011;22964;52.272;13.356;2023-01-26T13:51:15;9.75;;;5.63;;
37051;SDS011;22964;52.272;13.356;2023-01-26T13:53:50;9.02;;;5.85;;
37051;SDS011;22964;52.272;13.356;2023-01-26T13:56:38;9.15;;;5.68;;
37051;SDS011;22964;52.272;13.356;2023-01-26T13:59:06;8.75;;;5.95;;
37051;SDS011;22964;52.272;13.356;2023-01-26T14:04:10;32.55;;;10.38;;
37051;SDS011;22964;52.272;13.356;2023-01-26T14:06:40;164.02;;;33.63;;
37051;SDS011;22964;52.272;13.356;2023-01-26T14:09:11;99.78;;;20.55;;
37051;SDS011;22964;52.272;13.356;2023-01-26T14:11:39;88.10;;;19.92;;
37051;SDS011;22964;52.272;13.356;2023-01-26T14:14:10;92.32;;;20.60;;
37051;SDS011;22964;52.272;13.356;2023-01-26T14:16:47;73.30;;;16.92;;
37051;SDS011;22964;52.272;13.356;2023-01-26T14:21:51;96.93;;;24.13;;
37051;SDS011;22964;52.272;13.356;2023-01-26T14:24:39;80.28;;;20.17;;
37051;SDS011;22964;52.272;13.356;2023-01-26T14:29:48;53.17;;;16.92;;
37051;SDS011;22964;52.272;13.356;2023-01-26T14:32:14;79.28;;;26.73;;
37051;SDS011;22964;52.272;13.356;2023-01-26T14:34:51;66.43;;;20.67;;
37051;SDS011;22964;52.272;13.356;2023-01-26T14:37:18;59.85;;;18.70;;
37051;SDS011;22964;52.272;13.356;2023-01-26T14:39:44;35.92;;;12.30;;
37051;SDS011;22964;52.272;13.356;2023-01-26T14:42:13;25.42;;;10.35;;
37051;SDS011;22964;52.272;13.356;2023-01-26T14:44:43;42.10;;;14.30;;
37051;SDS011;22964;52.272;13.356;2023-01-26T14:47:19;48.92;;;16.88;;
37051;SDS011;22964;52.272;13.356;2023-01-26T14:49:59;26.42;;;10.60;;
37051;SDS011;22964;52.272;13.356;2023-01-26T14:52:30;14.27;;;6.50;;
37051;SDS011;22964;52.272;13.356;2023-01-26T14:55:03;43.95;;;18.60;;
37051;SDS011;22964;52.272;13.356;2023-01-26T14:57:39;34.42;;;14.23;;
37051;SDS011;22964;52.272;13.356;2023-01-26T15:00:04;18.27;;;9.27;;
37051;SDS011;22964;52.272;13.356;2023-01-26T15:02:34;15.63;;;8.02;;
37051;SDS011;22964;52.272;13.356;2023-01-26T15:05:03;18.33;;;9.07;;
37051;SDS011;22964;52.272;13.356;2023-01-26T15:15:42;20.67;;;10.60;;
37051;SDS011;22964;52.272;13.356;2023-01-26T15:23:13;14.52;;;7.45;;
37051;SDS011;22964;52.272;13.356;2023-01-26T15:25:49;14.20;;;7.38;;
37051;SDS011;22964;52.272;13.356;2023-01-26T15:28:16;10.95;;;6.35;;
37051;SDS011;22964;52.272;13.356;2023-01-26T15:30:47;10.38;;;6.35;;
37051;SDS011;22964;52.272;13.356;2023-01-26T15:35:59;9.57;;;5.75;;
37051;SDS011;22964;52.272;13.356;2023-01-26T15:38:25;15.60;;;7.70;;
37051;SDS011;22964;52.272;13.356;2023-01-26T15:40:51;12.95;;;7.50;;
37051;SDS011;22964;52.272;13.356;2023-01-26T15:43:22;14.15;;;7.57;;
37051;SDS011;22964;52.272;13.356;2023-01-26T15:45:55;12.73;;;7.20;;
37051;SDS011;22964;52.272;13.356;2023-01-26T15:48:29;13.30;;;7.07;;
37051;SDS011;22964;52.272;13.356;2023-01-26T15:51:07;20.25;;;8.55;;
37051;SDS011;22964;52.272;13.356;2023-01-26T15:53:41;18.30;;;8.25;;
37051;SDS011;22964;52.272;13.356;2023-01-26T15:56:13;29.08;;;11.25;;
37051;SDS011;22964;52.272;13.356;2023-01-26T15:58:40;30.98;;;12.27;;
37051;SDS011;22964;52.272;13.356;2023-01-26T16:01:07;15.70;;;8.38;;
37051;SDS011;22964;52.272;13.356;2023-01-26T16:06:04;36.63;;;14.60;;
37051;SDS011;22964;52.272;13.356;2023-01-26T16:08:30;34.50;;;18.95;;
37051;SDS011;22964;52.272;13.356;2023-01-26T16:10:56;44.90;;;28.05;;
37051;SDS011;22964;52.272;13.356;2023-01-26T16:13:23;25.52;;;14.60;;
37051;SDS011;22964;52.272;13.356;2023-01-26T16:15:50;28.88;;;13.38;;
37051;SDS011;22964;52.272;13.356;2023-01-26T16:18:17;21.10;;;11.48;;
37051;SDS011;22964;52.272;13.356;2023-01-26T16:20:46;41.95;;;18.13;;
37051;SDS011;22964;52.272;13.356;2023-01-26T16:23:20;45.58;;;19.45;;
37051;SDS011;22964;52.272;13.356;2023-01-26T16:25:53;39.83;;;16.48;;
37051;SDS011;22964;52.272;13.356;2023-01-26T16:28:20;64.68;;;23.90;;
37051;SDS011;22964;52.272;13.356;2023-01-26T16:30:47;30.05;;;13.68;;
37051;SDS011;22964;52.272;13.356;2023-01-26T16:33:17;45.03;;;19.10;;
37051;SDS011;22964;52.272;13.356;2023-01-26T16:35:48;37.40;;;17.27;;
37051;SDS011;22964;52.272;13.356;2023-01-26T16:38:14;26.92;;;13.98;;
37051;SDS011;22964;52.272;13.356;2023-01-26T16:40:45;21.23;;;11.85;;
37051;SDS011;22964;52.272;13.356;2023-01-26T16:43:19;20.67;;;11.27;;
37051;SDS011;22964;52.272;13.356;2023-01-26T16:45:48;30.55;;;15.52;;
37051;SDS011;22964;52.272;13.356;2023-01-26T16:48:15;23.20;;;12.32;;
37051;SDS011;22964;52.272;13.356;2023-01-26T16:50:41;19.27;;;10.13;;
37051;SDS011;22964;52.272;13.356;2023-01-26T16:53:50;18.25;;;9.85;;
37051;SDS011;22964;52.272;13.356;2023-01-26T16:56:00;29.20;;;13.68;;
37051;SDS011;22964;52.272;13.356;2023-01-26T16:58:27;39.88;;;18.98;;
37051;SDS011;22964;52.272;13.356;2023-01-26T17:00:54;29.80;;;14.68;;
37051;SDS011;22964;52.272;13.356;2023-01-26T17:03:21;44.30;;;21.02;;
37051;SDS011;22964;52.272;13.356;2023-01-26T17:05:47;42.15;;;19.95;;